createdAt,value
2022-10-13T00:00:23.631Z,1019.25
2022-10-13T00:01:26.875Z,1019.26
2022-10-13T00:02:30.194Z,1019.22
2022-10-13T00:04:04.747Z,1019.22
2022-10-13T00:05:07.516Z,1019.14
2022-10-13T00:06:10.260Z,1019.11
2022-10-13T00:07:44.968Z,1019.14
2022-10-13T00:08:47.875Z,1019.12
2022-10-13T00:09:50.589Z,1019.08
2022-10-13T00:11:25.184Z,1019.06
2022-10-13T00:12:28.676Z,1019.06
2022-10-13T00:13:32.084Z,1019.08
2022-10-13T00:15:06.669Z,1019.07
2022-10-13T00:16:09.302Z,1019.10
2022-10-13T00:17:12.174Z,1019.08
2022-10-13T00:18:46.745Z,1018.99
2022-10-13T00:19:49.430Z,1019.04
2022-10-13T00:20:52.119Z,1019.00
2022-10-13T00:22:27.453Z,1018.93
2022-10-13T00:23:30.151Z,1018.95
2022-10-13T00:24:32.869Z,1018.99
2022-10-13T00:26:07.657Z,1019.03
2022-10-13T00:27:10.491Z,1019.02
2022-10-13T00:28:13.383Z,1019.02
2022-10-13T00:29:50.451Z,1019.03
2022-10-13T00:30:53.269Z,1019.02
2022-10-13T00:31:56.133Z,1019.01
2022-10-13T00:33:30.748Z,1019.01
2022-10-13T00:34:33.424Z,1018.99
2022-10-13T00:35:36.287Z,1018.98
2022-10-13T00:37:10.888Z,1018.92
2022-10-13T00:38:13.801Z,1018.91
2022-10-13T00:39:16.426Z,1018.91
2022-10-13T00:40:51.099Z,1018.91
2022-10-13T00:41:53.758Z,1018.87
2022-10-13T00:42:56.422Z,1018.89
2022-10-13T00:44:30.888Z,1018.86
2022-10-13T00:45:33.550Z,1018.85
2022-10-13T00:46:36.237Z,1018.89
2022-10-13T00:48:10.711Z,1018.85
2022-10-13T00:49:13.605Z,1018.80
2022-10-13T00:50:16.389Z,1018.80
2022-10-13T00:51:51.057Z,1018.80
2022-10-13T00:52:53.769Z,1018.79
2022-10-13T00:53:56.652Z,1018.74
2022-10-13T00:55:31.210Z,1018.73
2022-10-13T00:56:33.991Z,1018.76
2022-10-13T00:57:36.786Z,1018.74
2022-10-13T00:59:11.130Z,1018.73
2022-10-13T01:00:22.402Z,1018.69
2022-10-13T01:01:25.651Z,1018.70
2022-10-13T01:02:29.044Z,1018.73
2022-10-13T01:04:03.344Z,1018.69
2022-10-13T01:05:06.185Z,1018.70
2022-10-13T01:06:09.034Z,1018.67
2022-10-13T01:07:47.478Z,1018.70
2022-10-13T01:08:50.156Z,1018.70
2022-10-13T01:09:52.902Z,1018.71
2022-10-13T01:11:27.572Z,1018.72
2022-10-13T01:12:30.869Z,1018.69
2022-10-13T01:13:33.563Z,1018.75
2022-10-13T01:15:08.148Z,1018.73
2022-10-13T01:16:10.791Z,1018.74
2022-10-13T01:17:13.415Z,1018.72
2022-10-13T01:18:48.126Z,1018.69
2022-10-13T01:19:50.889Z,1018.68
2022-10-13T01:20:53.688Z,1018.68
2022-10-13T01:22:28.963Z,1018.68
2022-10-13T01:23:31.871Z,1018.69
2022-10-13T01:24:34.765Z,1018.70
2022-10-13T01:26:09.297Z,1018.68
2022-10-13T01:27:12.312Z,1018.67
2022-10-13T01:28:14.976Z,1018.65
2022-10-13T01:29:49.636Z,1018.63
2022-10-13T01:30:52.213Z,1018.66
2022-10-13T01:31:54.967Z,1018.60
2022-10-13T01:33:29.293Z,1018.65
2022-10-13T01:34:32.105Z,1018.59
2022-10-13T01:35:34.704Z,1018.63
2022-10-13T01:37:09.247Z,1018.63
2022-10-13T01:38:11.899Z,1018.59
2022-10-13T01:39:14.626Z,1018.57
2022-10-13T01:40:49.308Z,1018.62
2022-10-13T01:41:52.321Z,1018.59
2022-10-13T01:42:57.111Z,1018.55
2022-10-13T01:44:31.603Z,1018.63
2022-10-13T01:45:34.323Z,1018.58
2022-10-13T01:46:37.167Z,1018.62
2022-10-13T01:48:11.670Z,1018.57
2022-10-13T01:49:14.670Z,1018.58
2022-10-13T01:50:17.349Z,1018.57
2022-10-13T01:51:51.788Z,1018.57
2022-10-13T01:52:54.410Z,1018.57
2022-10-13T01:53:57.287Z,1018.52
2022-10-13T01:55:32.033Z,1018.51
2022-10-13T01:56:34.752Z,1018.50
2022-10-13T01:57:37.610Z,1018.49
2022-10-13T01:59:12.093Z,1018.45
2022-10-13T02:00:23.895Z,1018.46
2022-10-13T02:01:26.772Z,1018.43
2022-10-13T02:02:29.887Z,1018.44
2022-10-13T02:04:04.308Z,1018.50
2022-10-13T02:05:07.030Z,1018.51
2022-10-13T02:06:09.913Z,1018.48
2022-10-13T02:07:44.564Z,1018.47
2022-10-13T02:08:47.458Z,1018.39
2022-10-13T02:09:50.283Z,1018.43
2022-10-13T02:11:24.797Z,1018.41
2022-10-13T02:12:28.129Z,1018.41
2022-10-13T02:13:30.872Z,1018.42
2022-10-13T02:15:05.300Z,1018.38
2022-10-13T02:16:07.938Z,1018.42
2022-10-13T02:17:10.710Z,1018.40
2022-10-13T02:18:45.246Z,1018.41
2022-10-13T02:19:48.022Z,1018.36
2022-10-13T02:20:50.782Z,1018.38
2022-10-13T02:22:25.791Z,1018.38
2022-10-13T02:23:28.526Z,1018.38
2022-10-13T02:24:31.204Z,1018.35
2022-10-13T02:26:05.612Z,1018.36
2022-10-13T02:27:08.146Z,1018.34
2022-10-13T02:28:10.792Z,1018.33
2022-10-13T02:29:45.688Z,1018.31
2022-10-13T02:30:48.357Z,1018.26
2022-10-13T02:31:51.082Z,1018.26
2022-10-13T02:33:25.673Z,1018.26
2022-10-13T02:34:28.309Z,1018.26
2022-10-13T02:35:30.893Z,1018.27
2022-10-13T02:37:05.352Z,1018.26
2022-10-13T02:38:08.229Z,1018.21
2022-10-13T02:39:11.057Z,1018.25
2022-10-13T02:40:45.472Z,1018.22
2022-10-13T02:41:48.149Z,1018.19
2022-10-13T02:42:50.894Z,1018.21
2022-10-13T02:44:25.407Z,1018.17
2022-10-13T02:45:28.196Z,1018.20
2022-10-13T02:46:30.845Z,1018.19
2022-10-13T02:48:05.356Z,1018.15
2022-10-13T02:49:08.045Z,1018.14
2022-10-13T02:50:10.690Z,1018.17
2022-10-13T02:51:51.190Z,1018.17
2022-10-13T02:52:54.186Z,1018.16
2022-10-13T02:53:56.920Z,1018.16
2022-10-13T02:55:31.380Z,1018.17
2022-10-13T02:56:34.042Z,1018.16
2022-10-13T02:57:36.896Z,1018.16
2022-10-13T02:59:11.325Z,1018.12
2022-10-13T03:00:23.322Z,1018.16
2022-10-13T03:01:26.595Z,1018.15
2022-10-13T03:02:30.273Z,1018.14
2022-10-13T03:04:04.759Z,1018.14
2022-10-13T03:05:07.537Z,1018.12
2022-10-13T03:06:10.231Z,1018.07
2022-10-13T03:07:44.667Z,1018.04
2022-10-13T03:08:47.555Z,1017.98
2022-10-13T03:09:50.267Z,1017.97
2022-10-13T03:11:24.832Z,1017.77
2022-10-13T03:12:28.355Z,1017.77
2022-10-13T03:13:31.011Z,1017.85
2022-10-13T03:15:05.622Z,1017.90
2022-10-13T03:16:08.354Z,1017.91
2022-10-13T03:17:16.687Z,1017.90
2022-10-13T03:18:51.097Z,1017.82
2022-10-13T03:19:53.732Z,1017.84
2022-10-13T03:20:56.358Z,1017.81
2022-10-13T03:22:31.200Z,1017.83
2022-10-13T03:23:38.877Z,1017.85
2022-10-13T03:24:41.715Z,1017.84
2022-10-13T03:26:16.224Z,1017.90
2022-10-13T03:27:18.911Z,1017.94
2022-10-13T03:28:21.814Z,1017.84
2022-10-13T03:29:56.509Z,1017.84
2022-10-13T03:30:59.223Z,1017.78
2022-10-13T03:32:02.100Z,1017.80
2022-10-13T03:33:37.036Z,1017.80
2022-10-13T03:34:39.593Z,1017.81
2022-10-13T03:35:42.286Z,1017.75
2022-10-13T03:37:16.646Z,1017.77
2022-10-13T03:38:19.240Z,1017.68
2022-10-13T03:39:21.865Z,1017.64
2022-10-13T03:40:56.431Z,1017.62
2022-10-13T03:41:59.089Z,1017.57
2022-10-13T03:43:01.659Z,1017.60
2022-10-13T03:44:36.296Z,1017.63
2022-10-13T03:45:42.538Z,1017.58
2022-10-13T03:46:45.402Z,1017.58
2022-10-13T03:48:19.926Z,1017.64
2022-10-13T03:49:22.664Z,1017.64
2022-10-13T03:50:25.349Z,1017.63
2022-10-13T03:51:59.891Z,1017.61
2022-10-13T03:53:03.193Z,1017.64
2022-10-13T03:54:05.866Z,1017.60
2022-10-13T03:55:40.476Z,1017.62
2022-10-13T03:56:43.119Z,1017.59
2022-10-13T03:57:45.972Z,1017.57
2022-10-13T03:59:20.347Z,1017.51
2022-10-13T04:00:22.867Z,1017.52
2022-10-13T04:01:25.781Z,1017.52
2022-10-13T04:02:29.433Z,1017.42
2022-10-13T04:04:03.879Z,1017.40
2022-10-13T04:05:53.236Z,1017.46
2022-10-13T04:06:56.129Z,1017.53
2022-10-13T04:07:58.933Z,1017.48
2022-10-13T04:09:33.541Z,1017.46
2022-10-13T04:10:36.718Z,1017.49
2022-10-13T04:11:39.562Z,1017.51
2022-10-13T04:13:19.282Z,1017.46
2022-10-13T04:14:22.043Z,1017.46
2022-10-13T04:15:24.758Z,1017.46
2022-10-13T04:16:59.387Z,1017.50
2022-10-13T04:18:01.966Z,1017.46
2022-10-13T04:19:04.933Z,1017.47
2022-10-13T04:20:39.718Z,1017.33
2022-10-13T04:21:42.327Z,1017.36
2022-10-13T04:22:44.995Z,1017.36
2022-10-13T04:24:19.394Z,1017.44
2022-10-13T04:25:22.272Z,1017.40
2022-10-13T04:26:24.923Z,1017.39
2022-10-13T04:27:59.446Z,1017.41
2022-10-13T04:29:02.593Z,1017.43
2022-10-13T04:30:05.348Z,1017.41
2022-10-13T04:31:46.826Z,1017.40
2022-10-13T04:32:49.602Z,1017.43
2022-10-13T04:33:52.312Z,1017.40
2022-10-13T04:35:26.727Z,1017.39
2022-10-13T04:36:29.615Z,1017.40
2022-10-13T04:37:32.281Z,1017.41
2022-10-13T04:39:13.221Z,1017.40
2022-10-13T04:40:15.839Z,1017.44
2022-10-13T04:41:18.495Z,1017.39
2022-10-13T04:42:53.001Z,1017.35
2022-10-13T04:43:55.756Z,1017.34
2022-10-13T04:44:58.622Z,1017.33
2022-10-13T04:46:33.158Z,1017.35
2022-10-13T04:47:42.421Z,1017.41
2022-10-13T04:48:45.247Z,1017.47
2022-10-13T04:50:19.825Z,1017.48
2022-10-13T04:51:22.541Z,1017.48
2022-10-13T04:52:25.627Z,1017.42
2022-10-13T04:54:05.203Z,1017.42
2022-10-13T04:55:08.073Z,1017.40
2022-10-13T04:56:10.914Z,1017.45
2022-10-13T04:57:45.518Z,1017.37
2022-10-13T04:58:48.209Z,1017.34
2022-10-13T04:59:51.080Z,1017.35
2022-10-13T05:00:23.510Z,1017.35
2022-10-13T05:01:32.931Z,1017.30
2022-10-13T05:02:35.818Z,1017.31
2022-10-13T05:04:10.308Z,1017.29
2022-10-13T05:05:13.091Z,1017.19
2022-10-13T05:06:16.236Z,1017.14
2022-10-13T05:08:14.620Z,1017.07
2022-10-13T05:09:17.386Z,1017.00
2022-10-13T05:10:19.995Z,1017.01
2022-10-13T05:11:58.187Z,1016.93
2022-10-13T05:13:00.933Z,1016.97
2022-10-13T05:14:03.756Z,1017.06
2022-10-13T05:15:38.281Z,1017.18
2022-10-13T05:16:41.065Z,1017.22
2022-10-13T05:17:46.852Z,1017.25
2022-10-13T05:19:21.423Z,1017.33
2022-10-13T05:20:24.077Z,1017.35
2022-10-13T05:21:26.781Z,1017.27
2022-10-13T05:23:01.512Z,1017.30
2022-10-13T05:24:04.265Z,1017.27
2022-10-13T05:25:06.914Z,1017.29
2022-10-13T05:26:41.699Z,1017.27
2022-10-13T05:27:44.557Z,1017.25
2022-10-13T05:28:47.841Z,1017.26
2022-10-13T05:30:22.613Z,1017.20
2022-10-13T05:31:25.343Z,1017.23
2022-10-13T05:32:28.961Z,1017.24
2022-10-13T05:34:08.187Z,1017.19
2022-10-13T05:35:10.953Z,1017.20
2022-10-13T05:36:13.735Z,1017.24
2022-10-13T05:37:48.231Z,1017.21
2022-10-13T05:38:50.927Z,1017.15
2022-10-13T05:39:54.755Z,1017.17
2022-10-13T05:41:29.396Z,1017.17
2022-10-13T05:42:32.718Z,1017.17
2022-10-13T05:43:35.503Z,1017.16
2022-10-13T05:45:09.966Z,1017.20
2022-10-13T05:46:12.567Z,1017.19
2022-10-13T05:47:18.970Z,1017.22
2022-10-13T05:48:53.570Z,1017.24
2022-10-13T05:49:56.178Z,1017.29
2022-10-13T05:50:58.829Z,1017.31
2022-10-13T05:52:33.962Z,1017.31
2022-10-13T05:53:36.731Z,1017.32
2022-10-13T05:54:49.888Z,1017.40
2022-10-13T05:56:24.283Z,1017.48
2022-10-13T05:57:27.124Z,1017.46
2022-10-13T05:58:29.811Z,1017.43
2022-10-13T06:00:22.937Z,1017.45
2022-10-13T06:01:25.740Z,1017.43
2022-10-13T06:02:29.340Z,1017.45
2022-10-13T06:04:03.884Z,1017.46
2022-10-13T06:05:06.505Z,1017.39
2022-10-13T06:06:09.201Z,1017.43
2022-10-13T06:07:49.239Z,1017.42
2022-10-13T06:08:52.115Z,1017.44
2022-10-13T06:09:54.832Z,1017.38
2022-10-13T06:11:29.367Z,1017.36
2022-10-13T06:12:32.656Z,1017.32
2022-10-13T06:13:35.459Z,1017.29
2022-10-13T06:15:09.950Z,1017.29
2022-10-13T06:16:19.577Z,1017.25
2022-10-13T06:17:22.339Z,1017.26
2022-10-13T06:18:56.845Z,1017.27
2022-10-13T06:19:59.509Z,1017.20
2022-10-13T06:21:02.408Z,1017.19
2022-10-13T06:22:36.968Z,1017.13
2022-10-13T06:23:39.686Z,1017.12
2022-10-13T06:24:42.501Z,1017.11
2022-10-13T06:26:17.052Z,1017.10
2022-10-13T06:27:19.820Z,1017.09
2022-10-13T06:28:23.025Z,1017.09
2022-10-13T06:29:58.114Z,1017.01
2022-10-13T06:31:00.853Z,1017.05
2022-10-13T06:32:03.546Z,1017.03
2022-10-13T06:33:39.016Z,1017.10
2022-10-13T06:34:41.697Z,1017.11
2022-10-13T06:35:44.540Z,1017.11
2022-10-13T06:37:21.235Z,1017.10
2022-10-13T06:38:27.753Z,1017.10
2022-10-13T06:39:30.662Z,1017.04
2022-10-13T06:41:05.296Z,1017.05
2022-10-13T06:42:07.961Z,1017.02
2022-10-13T06:43:11.325Z,1017.00
2022-10-13T06:44:58.089Z,1016.98
2022-10-13T06:46:00.758Z,1016.92
2022-10-13T06:47:03.731Z,1016.90
2022-10-13T06:48:38.638Z,1016.89
2022-10-13T06:49:41.600Z,1016.84
2022-10-13T06:50:48.537Z,1016.91
2022-10-13T06:52:23.671Z,1016.88
2022-10-13T06:53:26.558Z,1016.89
2022-10-13T06:54:29.277Z,1016.89
2022-10-13T06:56:03.957Z,1016.93
2022-10-13T06:57:06.792Z,1016.92
2022-10-13T06:58:09.736Z,1016.97
2022-10-13T06:59:44.274Z,1016.98
2022-10-13T07:00:23.728Z,1017.01
2022-10-13T07:01:27.141Z,1016.97
2022-10-13T07:02:34.103Z,1016.98
2022-10-13T07:04:08.720Z,1016.99
2022-10-13T07:05:11.448Z,1017.02
2022-10-13T07:06:14.350Z,1017.00
2022-10-13T07:07:49.171Z,1017.00
2022-10-13T07:08:52.039Z,1017.07
2022-10-13T07:09:54.945Z,1017.08
2022-10-13T07:11:29.370Z,1017.08
2022-10-13T07:12:33.080Z,1017.06
2022-10-13T07:13:45.306Z,1017.01
2022-10-13T07:15:26.410Z,1016.97
2022-10-13T07:16:29.105Z,1016.92
2022-10-13T07:17:32.322Z,1016.92
2022-10-13T07:19:07.125Z,1016.90
2022-10-13T07:20:14.727Z,1016.92
2022-10-13T07:21:17.507Z,1016.90
2022-10-13T07:22:52.130Z,1016.84
2022-10-13T07:23:54.903Z,1016.84
2022-10-13T07:24:57.601Z,1016.83
2022-10-13T07:26:32.160Z,1016.83
2022-10-13T07:27:35.607Z,1016.84
2022-10-13T07:28:38.775Z,1016.83
2022-10-13T07:30:13.780Z,1016.97
2022-10-13T07:31:16.674Z,1017.02
2022-10-13T07:32:19.429Z,1017.07
2022-10-13T07:33:54.032Z,1017.11
2022-10-13T07:34:56.751Z,1017.05
2022-10-13T07:35:59.397Z,1017.08
2022-10-13T07:37:34.346Z,1017.10
2022-10-13T07:38:37.261Z,1017.06
2022-10-13T07:39:40.046Z,1016.99
2022-10-13T07:41:14.584Z,1017.01
2022-10-13T07:42:17.294Z,1017.01
2022-10-13T07:43:20.218Z,1016.99
2022-10-13T07:44:54.894Z,1016.93
2022-10-13T07:45:57.725Z,1016.96
2022-10-13T07:47:00.478Z,1016.98
2022-10-13T07:48:35.620Z,1016.96
2022-10-13T07:49:38.476Z,1016.96
2022-10-13T07:50:41.273Z,1016.97
2022-10-13T07:52:15.895Z,1016.94
2022-10-13T07:53:19.776Z,1016.89
2022-10-13T07:54:26.543Z,1016.88
2022-10-13T07:56:01.902Z,1016.92
2022-10-13T07:57:04.895Z,1016.91
2022-10-13T07:58:07.776Z,1016.90
2022-10-13T07:59:42.338Z,1016.91
2022-10-13T08:00:23.114Z,1016.98
2022-10-13T08:01:26.286Z,1017.00
2022-10-13T08:02:29.925Z,1016.99
2022-10-13T08:04:04.586Z,1017.01
2022-10-13T08:05:07.629Z,1016.98
2022-10-13T08:06:10.363Z,1016.95
2022-10-13T08:07:44.999Z,1016.95
2022-10-13T08:08:53.191Z,1016.94
2022-10-13T08:09:55.947Z,1016.93
2022-10-13T08:11:30.766Z,1016.86
2022-10-13T08:12:34.123Z,1016.91
2022-10-13T08:13:36.888Z,1016.92
2022-10-13T08:15:17.373Z,1016.92
2022-10-13T08:16:20.197Z,1016.92
2022-10-13T08:17:23.457Z,1016.90
2022-10-13T08:18:58.128Z,1016.91
2022-10-13T08:20:00.899Z,1016.88
2022-10-13T08:22:02.276Z,1016.91
2022-10-13T08:23:44.951Z,1016.92
2022-10-13T08:24:47.635Z,1016.93
2022-10-13T08:25:50.432Z,1016.88
2022-10-13T08:27:32.747Z,1016.89
2022-10-13T08:29:29.889Z,1016.90
2022-10-13T08:30:33.489Z,1016.85
2022-10-13T08:32:09.659Z,1016.88
2022-10-13T08:33:12.920Z,1016.88
2022-10-13T08:34:15.732Z,1016.88
2022-10-13T08:35:50.481Z,1016.87
2022-10-13T08:36:53.548Z,1016.85
2022-10-13T08:37:56.486Z,1016.92
2022-10-13T08:39:31.155Z,1016.90
2022-10-13T08:40:33.955Z,1016.92
2022-10-13T08:41:36.710Z,1016.97
2022-10-13T08:43:11.941Z,1016.94
2022-10-13T08:45:41.975Z,1016.93
2022-10-13T08:46:45.153Z,1016.88
2022-10-13T08:48:19.798Z,1016.86
2022-10-13T08:49:22.642Z,1016.92
2022-10-13T08:50:27.097Z,1016.90
2022-10-13T08:52:01.566Z,1016.95
2022-10-13T08:53:05.176Z,1016.93
2022-10-13T08:54:07.906Z,1016.91
2022-10-13T08:55:42.570Z,1016.87
2022-10-13T08:56:45.275Z,1016.92
2022-10-13T08:57:48.801Z,1016.84
2022-10-13T08:59:23.375Z,1016.84
2022-10-13T09:00:23.955Z,1016.79
2022-10-13T09:01:26.946Z,1016.82
2022-10-13T09:02:29.904Z,1016.83
2022-10-13T09:04:04.416Z,1016.81
2022-10-13T09:05:07.165Z,1016.80
2022-10-13T09:06:09.965Z,1016.82
2022-10-13T09:07:44.508Z,1016.87
2022-10-13T09:08:47.396Z,1016.86
2022-10-13T09:09:50.300Z,1016.89
2022-10-13T09:11:24.848Z,1016.86
2022-10-13T09:12:28.439Z,1016.82
2022-10-13T09:13:31.161Z,1016.82
2022-10-13T09:15:05.949Z,1016.81
2022-10-13T09:16:08.672Z,1016.79
2022-10-13T09:17:11.599Z,1016.83
2022-10-13T09:18:46.250Z,1016.90
2022-10-13T09:19:49.048Z,1016.95
2022-10-13T09:20:51.840Z,1016.96
2022-10-13T09:22:26.735Z,1016.93
2022-10-13T09:23:29.398Z,1016.95
2022-10-13T09:24:39.063Z,1016.98
2022-10-13T09:26:13.522Z,1016.95
2022-10-13T09:27:16.221Z,1016.96
2022-10-13T09:28:19.232Z,1016.95
2022-10-13T09:29:54.212Z,1016.95
2022-10-13T09:30:56.920Z,1016.93
2022-10-13T09:32:05.660Z,1016.94
2022-10-13T09:33:41.235Z,1016.89
2022-10-13T09:34:43.883Z,1016.82
2022-10-13T09:35:46.719Z,1016.80
2022-10-13T09:37:21.221Z,1016.76
2022-10-13T09:38:23.878Z,1016.75
2022-10-13T09:39:26.806Z,1016.78
2022-10-13T09:41:02.015Z,1016.72
2022-10-13T09:42:04.873Z,1016.72
2022-10-13T09:43:08.744Z,1016.72
2022-10-13T09:44:43.402Z,1016.66
2022-10-13T09:45:46.149Z,1016.69
2022-10-13T09:46:48.890Z,1016.70
2022-10-13T09:48:23.515Z,1016.65
2022-10-13T09:49:26.383Z,1016.68
2022-10-13T09:50:29.109Z,1016.70
2022-10-13T09:52:03.872Z,1016.65
2022-10-13T09:53:07.078Z,1016.67
2022-10-13T09:54:09.697Z,1016.70
2022-10-13T09:55:44.351Z,1016.68
2022-10-13T09:56:47.063Z,1016.70
2022-10-13T09:57:49.818Z,1016.68
2022-10-13T09:59:24.782Z,1016.69
2022-10-13T10:00:23.528Z,1016.69
2022-10-13T10:01:26.381Z,1016.65
2022-10-13T10:02:33.797Z,1016.66
2022-10-13T10:04:09.077Z,1016.63
2022-10-13T10:05:12.239Z,1016.66
2022-10-13T10:06:16.278Z,1016.64
2022-10-13T10:07:55.955Z,1016.65
2022-10-13T10:09:15.927Z,1016.65
2022-10-13T10:10:18.568Z,1016.68
2022-10-13T10:11:53.313Z,1016.68
2022-10-13T10:12:56.038Z,1016.61
2022-10-13T10:13:58.795Z,1016.63
2022-10-13T10:15:33.405Z,1016.67
2022-10-13T10:16:36.234Z,1016.66
2022-10-13T10:17:39.078Z,1016.67
2022-10-13T10:19:13.635Z,1016.63
2022-10-13T10:20:16.370Z,1016.61
2022-10-13T10:21:19.158Z,1016.64
2022-10-13T10:22:53.646Z,1016.65
2022-10-13T10:23:56.356Z,1016.65
2022-10-13T10:24:59.184Z,1016.66
2022-10-13T10:26:38.990Z,1016.63
2022-10-13T10:27:47.009Z,1016.64
2022-10-13T10:28:50.146Z,1016.64
2022-10-13T10:30:25.024Z,1016.68
2022-10-13T10:31:27.788Z,1016.65
2022-10-13T10:32:30.960Z,1016.67
2022-10-13T10:34:05.683Z,1016.62
2022-10-13T10:35:12.790Z,1016.64
2022-10-13T10:36:15.534Z,1016.62
2022-10-13T10:37:50.078Z,1016.62
2022-10-13T10:38:53.145Z,1016.61
2022-10-13T10:39:55.817Z,1016.65
2022-10-13T10:41:30.619Z,1016.66
2022-10-13T10:42:33.887Z,1016.60
2022-10-13T10:43:43.539Z,1016.59
2022-10-13T10:45:18.059Z,1016.58
2022-10-13T10:46:20.816Z,1016.55
2022-10-13T10:47:29.298Z,1016.57
2022-10-13T10:49:04.196Z,1016.57
2022-10-13T10:50:07.141Z,1016.53
2022-10-13T10:51:10.039Z,1016.52
2022-10-13T10:52:44.736Z,1016.44
2022-10-13T10:53:47.639Z,1016.43
2022-10-13T10:54:55.024Z,1016.44
2022-10-13T10:56:29.508Z,1016.43
2022-10-13T10:57:32.733Z,1016.41
2022-10-13T10:58:35.475Z,1016.40
2022-10-13T11:00:23.444Z,1016.37
2022-10-13T11:01:26.557Z,1016.32
2022-10-13T11:02:30.125Z,1016.32
2022-10-13T11:04:04.646Z,1016.28
2022-10-13T11:05:12.102Z,1016.28
2022-10-13T11:06:15.057Z,1016.31
2022-10-13T11:07:49.929Z,1016.29
2022-10-13T11:08:52.716Z,1016.26
2022-10-13T11:09:55.391Z,1016.28
2022-10-13T11:11:42.196Z,1016.21
2022-10-13T11:12:45.023Z,1016.21
2022-10-13T11:13:47.958Z,1016.18
2022-10-13T11:15:22.566Z,1016.17
2022-10-13T11:16:25.333Z,1016.17
2022-10-13T11:17:28.315Z,1016.17
2022-10-13T11:19:07.903Z,1016.13
2022-10-13T11:20:10.782Z,1016.13
2022-10-13T11:21:13.570Z,1016.13
2022-10-13T11:22:48.332Z,1016.14
2022-10-13T11:23:50.999Z,1016.10
2022-10-13T11:24:59.279Z,1016.12
2022-10-13T11:26:33.951Z,1016.06
2022-10-13T11:27:36.911Z,1016.04
2022-10-13T11:28:40.026Z,1016.03
2022-10-13T11:30:14.790Z,1016.03
2022-10-13T11:31:17.660Z,1016.00
2022-10-13T11:32:28.209Z,1016.00
2022-10-13T11:34:02.768Z,1015.95
2022-10-13T11:35:05.477Z,1015.94
2022-10-13T11:36:08.407Z,1015.96
2022-10-13T11:37:48.253Z,1015.92
2022-10-13T11:39:09.705Z,1015.91
2022-10-13T11:40:12.833Z,1015.99
2022-10-13T11:41:47.429Z,1015.96
2022-10-13T11:42:51.543Z,1015.95
2022-10-13T11:44:00.147Z,1015.94
2022-10-13T11:45:34.719Z,1015.94
2022-10-13T11:46:37.548Z,1015.91
2022-10-13T11:47:40.524Z,1015.95
2022-10-13T11:49:15.202Z,1015.90
2022-10-13T11:50:18.541Z,1015.90
2022-10-13T11:51:26.820Z,1015.89
2022-10-13T11:53:01.486Z,1015.87
2022-10-13T11:54:04.209Z,1015.84
2022-10-13T11:55:06.993Z,1015.90
2022-10-13T11:56:48.710Z,1015.91
2022-10-13T11:57:51.763Z,1015.90
2022-10-13T11:58:55.045Z,1015.86
2022-10-13T12:00:23.679Z,1015.88
2022-10-13T12:01:26.446Z,1015.88
2022-10-13T12:02:31.620Z,1015.86
2022-10-13T12:04:06.584Z,1015.80
2022-10-13T12:05:09.377Z,1015.82
2022-10-13T12:06:12.168Z,1015.78
2022-10-13T12:07:46.662Z,1015.78
2022-10-13T12:08:49.415Z,1015.76
2022-10-13T12:09:52.245Z,1015.79
2022-10-13T12:11:26.709Z,1015.83
2022-10-13T12:12:30.137Z,1015.88
2022-10-13T12:13:32.840Z,1015.86
2022-10-13T12:15:12.926Z,1015.88
2022-10-13T12:16:15.702Z,1015.86
2022-10-13T12:17:28.276Z,1015.88
2022-10-13T12:19:02.957Z,1015.82
2022-10-13T12:20:05.735Z,1015.81
2022-10-13T12:21:08.546Z,1015.84
2022-10-13T12:22:46.082Z,1015.84
2022-10-13T12:23:48.940Z,1015.86
2022-10-13T12:24:51.613Z,1015.83
2022-10-13T12:26:26.272Z,1015.87
2022-10-13T12:27:29.532Z,1015.84
2022-10-13T12:28:32.488Z,1015.84
2022-10-13T12:30:07.572Z,1015.83
2022-10-13T12:31:10.606Z,1015.87
2022-10-13T12:32:13.432Z,1015.82
2022-10-13T12:33:48.021Z,1015.77
2022-10-13T12:34:50.703Z,1015.82
2022-10-13T12:35:53.515Z,1015.78
2022-10-13T12:37:29.161Z,1015.81
2022-10-13T12:38:31.911Z,1015.77
2022-10-13T12:39:34.612Z,1015.81
2022-10-13T12:41:09.312Z,1015.82
2022-10-13T12:42:12.307Z,1015.82
2022-10-13T12:43:15.209Z,1015.80
2022-10-13T12:44:55.798Z,1015.78
2022-10-13T12:45:58.485Z,1015.79
2022-10-13T12:47:01.199Z,1015.76
2022-10-13T12:48:36.158Z,1015.76
2022-10-13T12:49:38.917Z,1015.75
2022-10-13T12:50:41.607Z,1015.76
2022-10-13T12:52:16.162Z,1015.75
2022-10-13T12:53:19.418Z,1015.75
2022-10-13T12:54:22.341Z,1015.75
2022-10-13T12:55:56.714Z,1015.76
2022-10-13T12:57:06.580Z,1015.75
2022-10-13T12:58:09.503Z,1015.76
2022-10-13T12:59:44.447Z,1015.75
2022-10-13T13:00:23.288Z,1015.72
2022-10-13T13:01:26.897Z,1015.74
2022-10-13T13:02:30.168Z,1015.73
2022-10-13T13:04:04.657Z,1015.73
2022-10-13T13:05:07.574Z,1015.65
2022-10-13T13:06:12.082Z,1015.70
2022-10-13T13:07:46.815Z,1015.72
2022-10-13T13:08:49.683Z,1015.70
2022-10-13T13:09:52.458Z,1015.71
2022-10-13T13:11:27.442Z,1015.72
2022-10-13T13:12:30.809Z,1015.76
2022-10-13T13:13:33.737Z,1015.75
2022-10-13T13:15:08.378Z,1015.78
2022-10-13T13:16:11.223Z,1015.73
2022-10-13T13:17:17.360Z,1015.76
2022-10-13T13:19:26.453Z,1015.70
2022-10-13T13:20:29.251Z,1015.72
2022-10-13T13:21:32.053Z,1015.70
2022-10-13T13:23:07.498Z,1015.69
2022-10-13T13:24:40.233Z,1015.68
2022-10-13T13:25:43.300Z,1015.72
2022-10-13T13:27:18.242Z,1015.72
2022-10-13T13:28:21.460Z,1015.72
2022-10-13T13:29:24.595Z,1015.72
2022-10-13T13:30:59.171Z,1015.70
2022-10-13T13:32:01.925Z,1015.70
2022-10-13T13:33:06.527Z,1015.71
2022-10-13T13:34:40.981Z,1015.72
2022-10-13T13:35:43.694Z,1015.72
2022-10-13T13:36:46.587Z,1015.69
2022-10-13T13:38:21.239Z,1015.72
2022-10-13T13:39:24.032Z,1015.70
2022-10-13T13:40:27.077Z,1015.71
2022-10-13T13:42:01.873Z,1015.72
2022-10-13T13:43:04.675Z,1015.72
2022-10-13T13:44:07.334Z,1015.68
2022-10-13T13:45:42.081Z,1015.74
2022-10-13T13:46:44.825Z,1015.74
2022-10-13T13:47:47.572Z,1015.75
2022-10-13T13:49:28.829Z,1015.72
2022-10-13T13:50:31.643Z,1015.72
2022-10-13T13:51:34.372Z,1015.69
2022-10-13T13:53:08.842Z,1015.67
2022-10-13T13:54:11.719Z,1015.72
2022-10-13T13:55:14.352Z,1015.74
2022-10-13T13:56:48.974Z,1015.68
2022-10-13T13:57:56.129Z,1015.66
2022-10-13T13:58:58.982Z,1015.67
2022-10-13T14:00:22.967Z,1015.67
2022-10-13T14:01:26.043Z,1015.65
2022-10-13T14:02:29.349Z,1015.64
2022-10-13T14:04:10.153Z,1015.61
2022-10-13T14:05:13.098Z,1015.60
2022-10-13T14:06:16.090Z,1015.58
2022-10-13T14:07:50.863Z,1015.57
2022-10-13T14:08:54.512Z,1015.57
2022-10-13T14:09:59.382Z,1015.57
2022-10-13T14:11:36.507Z,1015.55
2022-10-13T14:12:39.388Z,1015.50
2022-10-13T14:13:42.097Z,1015.52
2022-10-13T14:15:16.515Z,1015.49
2022-10-13T14:16:26.059Z,1015.46
2022-10-13T14:17:28.995Z,1015.45
2022-10-13T14:19:03.651Z,1015.45
2022-10-13T14:20:06.423Z,1015.48
2022-10-13T14:21:09.146Z,1015.47
2022-10-13T14:22:43.967Z,1015.49
2022-10-13T14:23:46.871Z,1015.46
2022-10-13T14:24:49.716Z,1015.46
2022-10-13T14:26:24.825Z,1015.46
2022-10-13T14:27:27.764Z,1015.46
2022-10-13T14:28:30.969Z,1015.44
2022-10-13T14:30:05.832Z,1015.44
2022-10-13T14:31:08.598Z,1015.41
2022-10-13T14:32:11.398Z,1015.42
2022-10-13T14:33:50.792Z,1015.41
2022-10-13T14:34:56.198Z,1015.38
2022-10-13T14:35:59.071Z,1015.37
2022-10-13T14:37:40.050Z,1015.39
2022-10-13T14:38:42.959Z,1015.38
2022-10-13T14:39:45.751Z,1015.41
2022-10-13T14:41:20.484Z,1015.42
2022-10-13T14:42:23.117Z,1015.39
2022-10-13T14:43:25.810Z,1015.38
2022-10-13T14:45:00.663Z,1015.33
2022-10-13T14:46:03.456Z,1015.38
2022-10-13T14:47:06.360Z,1015.36
2022-10-13T14:48:42.034Z,1015.39
2022-10-13T14:49:44.868Z,1015.40
2022-10-13T14:50:47.909Z,1015.40
2022-10-13T14:52:22.534Z,1015.38
2022-10-13T14:53:25.237Z,1015.37
2022-10-13T14:54:27.977Z,1015.37
2022-10-13T14:56:08.579Z,1015.38
2022-10-13T14:57:11.324Z,1015.34